• Join FlightAware (Why Join?)
  • Login
  • US Flag 
05:23PM EST


 

Airport Tracker/Info


-or-


 

Live Flight TrackerFlight Track Log ✈ JBU51 ✈ 18-Jun-2013 ✈ KBTV - KJFK

Flight Track Log - Related Links

Times and Time Zones

All times are in EDT time to prevent confusion due to time zone crossing. See the JBU51 flight status page for this flight to view local times or setup timezone preferences in your user account.

Time Position Orientation Groundspeed Altitude Reporting Facility
EDT Latitude Longitude Course Direction KTS MPH feet Rate Location/Type
11:42AM 44.0090 -73.3193 194° South  Level FlightAware Approximate
11:42AM 44.2744 -73.3361 196° South 288 331 7,100  Level Boston Center
11:43AM 43.9319 -73.3449 193° South  Level FlightAware Approximate
11:43AM 44.1953 -73.3581 191° South 293 337 8,200  Level Boston Center
11:44AM 43.8556 -73.3745 196° South  Level FlightAware Approximate
11:44AM 44.1158 -73.3742 188° South 298 343 10,000  Level Boston Center
11:45AM 43.7795 -73.4051 196° South  Level FlightAware Approximate
11:45AM 44.0239 -73.3928 188° South 320 368 12,300  Level Boston Center
11:46AM 43.7034 -73.4355 196° South  Level FlightAware Approximate
11:46AM 43.9300 -73.4117 188° South 339 390 14,800  Level Boston Center
11:47AM 43.6272 -73.4659 196° South  Level FlightAware Approximate
11:47AM 43.8319 -73.4300 188° South 357 411 17,700  Level Boston Center
11:48AM 43.7192 -73.4514 188° South 363 418 20,200 2,100 Climbing Boston Center
11:49AM 43.6275 -73.4642 186° South 372 428 22,000 900 Climbing Boston Center
11:50AM 43.5231 -73.4853 188° South 372 428 22,000  Level Boston Center
11:51AM 43.4186 -73.5006 186° South 372 428 22,000  Level Boston Center
11:52AM 43.3103 -73.5214 188° South 377 434 22,000 180 Level Boston Center
11:53AM 43.2058 -73.5425 188° South 387 445 22,400 480 Climbing Boston Center
11:54AM 43.0847 -73.5686 189° South 396 456 23,000 300 Climbing Boston Center
11:55AM 42.9781 -73.5867 187° South 396 456 23,000  Level Boston Center
11:56AM 42.8675 -73.6072 188° South 401 461 23,000 480 Level Boston Center
11:57AM 42.7714 -73.6281 189° South 395 455 24,000 480 Climbing Boston Center
11:58AM 42.6608 -73.6483 188° South 395 455 24,000  Level Boston Center
11:59AM 42.5500 -73.6689 188° South 400 460 24,000  Level Boston Center
12:00PM 42.4475 -73.7092 196° South 400 460 24,000  Level Boston Center
12:01PM 42.3508 -73.7717 206° Southwest 389 448 24,000  Level Boston Center
12:02PM 42.2503 -73.8283 203° Southwest 389 448 24,000  Level Boston Center
12:03PM 42.1456 -73.8708 197° South 394 453 24,000  Level Boston Center
12:04PM 42.0347 -73.8992 191° South 399 459 24,000 -300 Level Boston Center
12:05PM 41.8392 -73.9478 190° South 397 457 23,200 -660 Descending New York Center
12:06PM 41.7367 -73.9733 191° South 391 450 22,300 -960 Descending New York Center
12:07PM 41.6297 -74.0017 191° South 386 444 21,300 -960 Descending New York Center
12:08PM 41.5394 -74.0250 191° South 386 444 20,400 -660 Descending New York Center
12:09PM 41.4347 -74.0531 191° South 386 444 20,000 -240 Descending New York Center
12:10PM 41.3317 -74.0839 193° South 386 444 20,000 -180 Level New York Center
12:11PM 41.2250 -74.0978 186° South 386 444 19,700 -540 Descending New York Center
12:12PM 41.1081 -74.1142 186° South 393 452 19,000 -480 Descending New York Center
12:13PM 41.0500 -74.1167 182° South 375 432 19,000  Level New York TRACON
12:14PM 40.9500 -74.1333 187° South 339 390 19,000 -780 Level New York TRACON
12:15PM 40.8833 -74.0500 137° Southeast 331 381 17,500 -1,860 Descending New York TRACON
12:16PM 40.8167 -73.9500 131° Southeast 341 392 15,300 -2,160 Descending New York TRACON
12:17PM 40.7833 -73.8667 118° Southeast 327 376 13,400 -1,320 Descending New York TRACON
12:18PM 40.7333 -73.7833 128° Southeast 293 337 13,000 -660 Descending New York TRACON
12:19PM 40.6667 -73.7167 143° Southeast 335 386 12,200 -1,740 Descending New York TRACON
12:20PM 40.5833 -73.6833 163° South 299 344 9,600 -2,580 Descending New York TRACON
12:21PM 40.5000 -73.7000 189° South 286 329 6,800 -2,220 Descending New York TRACON
12:22PM 40.4333 -73.7333 201° Southwest 270 311 5,000 -1,440 Descending New York TRACON
12:23PM 40.4000 -73.8000 237° Southwest 268 308 4,000 -780 Descending New York TRACON
12:24PM 40.4333 -73.9000 294° West 274 315 3,400 -540 Descending New York TRACON
12:25PM 40.4667 -73.9500 311° West 245 282 3,000 -240 Descending New York TRACON
12:26PM 40.5167 -73.9667 346° North 240 276 3,000 -480 Level New York TRACON
12:27PM 40.5833 -73.9167 30° Northeast 203 234 2,100 -840 Descending New York TRACON